Time;durP1;ratioP1;P1;durP2;ratioP2;P2;SDS_P1;SDS_P2;PMS_P1;PMS_P2;Temp;Humidity;BMP_temperature;BMP_pressure;BME280_temperature;BME280_humidity;BME280_pressure;Samples;Min_cycle;Max_cycle;Signal;HPM_P1;HPM_P2
2022/08/24 00:00:39;;;;;;;;;4.00;3.33;;;;;21.13;77.08;100092.94;5016778;28;46167;-80
2022/08/24 00:03:06;;;;;;;;;5.00;4.00;;;;;21.09;77.39;100095.66;5017651;28;45458;-80
2022/08/24 00:05:31;;;;;;;;;3.00;3.00;;;;;21.01;76.91;100088.75;5016378;28;45487;-76
2022/08/24 00:07:57;;;;;;;;;5.00;5.00;;;;;21.11;77.21;100105.38;5016510;28;45534;-78
2022/08/24 00:10:24;;;;;;;;;4.00;3.67;;;;;21.07;77.13;100109.00;5015851;28;47597;-80
2022/08/24 00:12:50;;;;;;;;;4.33;4.33;;;;;21.05;76.89;100097.53;5017524;28;45186;-80
2022/08/24 00:15:16;;;;;;;;;5.67;5.33;;;;;21.08;77.14;100096.59;5017612;28;45316;-78
2022/08/24 00:17:41;;;;;;;;;6.00;5.00;;;;;20.93;76.77;100085.38;5017829;28;45498;-79
2022/08/24 00:20:10;;;;;;;;;6.00;5.33;;;;;20.98;76.67;100098.53;5016833;28;46040;-81
2022/08/24 00:22:36;;;;;;;;;5.00;5.00;;;;;20.80;76.56;100065.28;5015931;28;45807;-80
2022/08/24 00:25:03;;;;;;;;;4.33;4.00;;;;;20.84;76.73;100059.00;5015565;28;45570;-78
2022/08/24 00:27:28;;;;;;;;;5.67;5.33;;;;;20.93;77.18;100050.84;5017259;28;45454;-80
2022/08/24 00:29:54;;;;;;;;;3.33;3.33;;;;;20.90;76.57;100048.25;5014470;28;46239;-79
2022/08/24 00:32:20;;;;;;;;;4.67;4.00;;;;;21.07;76.82;100071.81;5017297;28;45967;-78
2022/08/24 00:34:45;;;;;;;;;4.00;4.00;;;;;20.95;76.50;100041.06;5015621;28;45520;-78
2022/08/24 00:37:11;;;;;;;;;3.33;3.33;;;;;21.25;76.25;100095.31;5015577;28;45370;-78
2022/08/24 00:39:36;;;;;;;;;5.33;4.33;;;;;21.20;75.89;100067.97;5016939;28;45748;-78
2022/08/24 00:42:02;;;;;;;;;4.00;3.67;;;;;21.35;75.53;100065.91;5017043;28;45364;-73
2022/08/24 00:44:29;;;;;;;;;4.00;3.67;;;;;21.43;75.37;100070.16;5017071;28;47101;-78
2022/08/24 00:47:17;;;;;;;;;4.00;4.00;;;;;21.34;75.41;100062.34;5016011;28;45537;-79
2022/08/24 00:49:50;;;;;;;;;4.00;3.00;;;;;21.52;75.07;100085.03;5016862;28;46283;-78
2022/08/24 00:52:18;;;;;;;;;3.33;3.33;;;;;21.56;75.15;100091.16;5016492;28;45554;-79
2022/08/24 00:54:53;;;;;;;;;3.33;3.33;;;;;21.46;74.94;100077.19;5016921;28;45407;-76
2022/08/24 00:57:25;;;;;;;;;4.00;3.00;;;;;21.58;75.06;100090.19;5016459;28;45585;-79
2022/08/24 01:00:25;;;;;;;;;3.33;3.33;;;;;21.39;75.55;100054.31;5015248;28;45780;-79
2022/08/24 01:02:55;;;;;;;;;4.67;4.67;;;;;21.63;75.23;100082.13;5013006;28;45486;-78
2022/08/24 01:05:21;;;;;;;;;4.00;4.00;;;;;21.40;75.35;100029.47;5016596;28;46106;-79
2022/08/24 01:07:49;;;;;;;;;6.00;5.00;;;;;21.29;76.46;100034.16;5016798;28;45439;-72
2022/08/24 01:10:18;;;;;;;;;5.00;4.67;;;;;21.50;76.17;100068.25;5015781;28;47960;-78
2022/08/24 01:12:47;;;;;;;;;6.33;5.00;;;;;21.51;76.75;100058.50;5016468;28;45525;-80
2022/08/24 01:15:15;;;;;;;;;6.00;5.00;;;;;21.51;76.08;100056.72;5016494;28;45418;-81
2022/08/24 01:20:26;;;;;;;;;5.00;5.00;;;;;21.56;76.08;100060.13;5016126;28;45457;-80
2022/08/24 01:23:09;;;;;;;;;7.33;5.00;;;;;21.53;75.55;100049.59;5014684;28;45387;-74
2022/08/24 01:25:37;;;;;;;;;6.33;5.00;;;;;21.61;75.42;100062.69;5016134;28;45395;-75
2022/08/24 01:28:09;;;;;;;;;7.67;7.00;;;;;21.48;76.49;100045.28;5015998;28;45478;-75
2022/08/24 01:30:35;;;;;;;;;7.67;6.67;;;;;21.49;77.19;100055.88;5014412;28;46661;-78
2022/08/24 01:33:04;;;;;;;;;8.00;7.00;;;;;21.55;77.29;100069.03;5016539;28;45416;-77
2022/08/24 01:35:31;;;;;;;;;8.00;6.00;;;;;21.62;76.37;100056.47;5015297;28;45648;-76
2022/08/24 01:38:01;;;;;;;;;8.67;7.00;;;;;21.64;75.84;100063.47;5017728;28;45554;-73
2022/08/24 01:40:33;;;;;;;;;6.00;6.00;;;;;21.71;75.57;100069.53;5018707;28;46437;-78
2022/08/24 01:42:59;;;;;;;;;7.00;6.00;;;;;21.48;75.73;100030.19;5019864;28;45597;-78
2022/08/24 01:45:24;;;;;;;;;7.00;6.00;;;;;;;;5018226;28;45323;-76
2022/08/24 01:47:50;;;;;;;;;5.33;4.33;;;;;21.65;75.83;100046.63;5019135;28;45598;-75
2022/08/24 01:50:16;;;;;;;;;7.67;5.67;;;;;21.57;75.97;100032.66;5014670;28;45419;-79
2022/08/24 01:52:43;;;;;;;;;6.67;5.67;;;;;21.64;76.07;100046.66;5012051;28;45442;-80
2022/08/24 01:55:12;;;;;;;;;7.00;6.33;;;;;21.69;76.29;100049.22;5018721;28;45426;-76
2022/08/24 01:57:38;;;;;;;;;7.00;6.00;;;;;21.58;76.24;100036.19;5019829;28;45393;-74
2022/08/24 02:00:07;;;;;;;;;7.00;7.00;;;;;21.63;76.61;100047.59;5019725;28;46034;-78
2022/08/24 02:02:33;;;;;;;;;6.00;5.00;;;;;21.65;76.34;100043.97;5018817;28;45456;-75
2022/08/24 02:04:58;;;;;;;;;8.00;7.00;;;;;21.65;76.85;100041.31;5019033;28;45652;-80
2022/08/24 02:07:24;;;;;;;;;6.67;6.00;;;;;;;;5017871;28;45447;-76
2022/08/24 02:09:51;;;;;;;;;8.00;7.00;;;;;21.69;76.73;100054.56;5018977;28;46569;-80
2022/08/24 02:12:18;;;;;;;;;9.33;9.00;;;;;21.63;77.28;100045.78;5018955;28;45436;-75
2022/08/24 02:14:43;;;;;;;;;8.00;7.67;;;;;21.56;76.88;100028.22;5017124;28;45580;-79
2022/08/24 02:17:09;;;;;;;;;7.67;7.00;;;;;21.55;77.28;100026.50;5019562;28;45263;-79
2022/08/24 02:19:36;;;;;;;;;8.00;7.33;;;;;21.62;77.75;100043.16;5019058;28;46591;-77
2022/08/24 02:22:02;;;;;;;;;8.00;7.00;;;;;21.72;77.39;100059.78;5018015;28;45746;-78
2022/08/24 02:24:28;;;;;;;;;7.67;7.33;;;;;21.59;77.20;100032.63;5018780;28;45795;-77
2022/08/24 02:26:55;;;;;;;;;6.67;6.00;;;;;21.65;77.79;100037.78;5019182;28;45450;-79
2022/08/24 02:29:21;;;;;;;;;6.00;5.33;;;;;21.78;77.56;100059.63;5018431;28;45549;-76
2022/08/24 02:31:46;;;;;;;;;8.00;7.33;;;;;21.63;77.37;100034.31;5018911;28;45596;-77
2022/08/24 02:34:12;;;;;;;;;6.67;6.67;;;;;21.66;77.25;100034.22;5016622;28;45527;-79
2022/08/24 02:36:38;;;;;;;;;5.00;5.00;;;;;21.79;77.36;100056.94;5019078;28;45393;-77
2022/08/24 02:39:06;;;;;;;;;7.67;6.67;;;;;21.64;77.84;100028.06;5016603;28;45610;-76
2022/08/24 02:41:32;;;;;;;;;7.00;6.00;;;;;21.75;77.65;100052.59;5018518;28;45577;-79
2022/08/24 02:43:58;;;;;;;;;6.00;5.00;;;;;21.68;77.75;100039.50;5016500;28;45417;-78
2022/08/24 02:46:27;;;;;;;;;6.33;5.33;;;;;21.76;77.37;100059.66;5018131;28;45376;-79
2022/08/24 02:48:53;;;;;;;;;6.67;4.33;;;;;21.76;76.90;100056.13;5017876;28;46103;-78
2022/08/24 02:51:24;;;;;;;;;7.00;4.67;;;;;21.57;76.87;100040.63;5016535;28;45729;-79
2022/08/24 02:53:51;;;;;;;;;6.00;5.33;;;;;21.64;76.46;100052.84;5018095;28;45711;-76
2022/08/24 02:56:17;;;;;;;;;5.33;5.00;;;;;21.50;76.90;100031.03;5018217;28;45517;-79
2022/08/24 02:58:47;;;;;;;;;5.33;4.33;;;;;21.64;77.04;100057.28;5018224;28;46515;-78
2022/08/24 03:01:13;;;;;;;;;5.67;5.67;;;;;21.05;77.25;99962.09;5018237;28;45478;-79
2022/08/24 03:03:40;;;;;;;;;6.00;5.00;;;;;21.59;76.74;100057.41;5018126;28;45524;-75
2022/08/24 03:06:07;;;;;;;;;5.67;5.67;;;;;21.60;76.90;100055.63;5018611;28;45451;-74
2022/08/24 03:08:34;;;;;;;;;7.00;7.00;;;;;21.55;77.40;100054.88;5029448;28;47077;-79
2022/08/24 03:11:00;;;;;;;;;8.00;7.00;;;;;21.45;77.35;100041.78;5017997;28;45424;-78
2022/08/24 03:13:29;;;;;;;;;7.33;5.67;;;;;21.45;77.57;100041.78;5016563;28;45618;-80
2022/08/24 03:15:56;;;;;;;;;6.33;5.67;;;;;21.49;77.21;100039.03;5016951;28;45509;-80
2022/08/24 03:18:24;;;;;;;;;6.00;6.00;;;;;21.39;77.13;100014.47;5017163;28;45478;-79
2022/08/24 03:20:50;;;;;;;;;6.00;5.33;;;;;21.40;77.32;100021.50;5016404;28;45527;-79
2022/08/24 03:23:16;;;;;;;;;7.00;5.67;;;;;21.32;77.84;100008.38;5017515;28;45390;-80
2022/08/24 03:25:42;;;;;;;;;7.00;7.00;;;;;21.49;77.55;100026.66;5018037;28;45419;-76
2022/08/24 03:28:07;;;;;;;;;5.00;5.00;;;;;21.45;77.36;100027.63;5017529;28;46216;-75
2022/08/24 03:30:33;;;;;;;;;7.00;6.00;;;;;21.29;77.45;99995.19;5015425;28;45491;-79
2022/08/24 03:32:58;;;;;;;;;6.00;5.33;;;;;21.45;78.17;100028.50;5017059;28;45376;-79
2022/08/24 03:35:24;;;;;;;;;7.00;6.67;;;;;21.41;78.08;100026.78;5016402;28;45498;-74
2022/08/24 03:37:50;;;;;;;;;7.00;7.00;;;;;21.38;77.44;100018.00;5016966;28;45525;-73
2022/08/24 03:40:19;;;;;;;;;9.67;7.67;;;;;21.44;78.09;100037.34;5017293;28;45375;-78
2022/08/24 03:42:45;;;;;;;;;6.67;6.33;;;;;21.40;78.01;100032.13;5002535;28;45286;-72
2022/08/24 03:45:11;;;;;;;;;6.00;5.33;;;;;21.40;77.39;100026.81;5013205;28;45466;-74
2022/08/24 03:47:36;;;;;;;;;7.00;5.00;;;;;21.41;77.23;100026.78;5017116;28;45815;-77
2022/08/24 03:50:04;;;;;;;;;4.33;4.33;;;;;21.46;77.03;100026.69;5017223;28;45482;-72
2022/08/24 03:52:30;;;;;;;;;6.00;5.00;;;;;21.32;77.12;99994.25;5016805;28;45521;-78
2022/08/24 03:54:55;;;;;;;;;7.00;5.67;;;;;21.47;77.22;100017.84;5016881;28;45468;-76
2022/08/24 03:57:21;;;;;;;;;7.00;6.00;;;;;21.38;77.06;99997.63;5016281;28;45563;-75
2022/08/24 03:59:48;;;;;;;;;6.67;6.33;;;;;21.34;76.69;99998.59;5016059;28;45612;-78
2022/08/24 04:02:13;;;;;;;;;7.67;7.00;;;;;21.45;76.76;100014.34;5036307;28;45281;-78
2022/08/24 04:04:39;;;;;;;;;8.00;6.00;;;;;21.20;77.57;99975.00;5016519;28;45599;-78
2022/08/24 04:07:05;;;;;;;;;7.00;5.33;;;;;21.16;77.52;99985.75;5015600;28;46156;-78
2022/08/24 04:09:30;;;;;;;;;6.67;5.33;;;;;21.33;77.29;100009.25;5016070;28;45552;-78
2022/08/24 04:11:56;;;;;;;;;6.67;5.00;;;;;21.28;77.76;100000.53;5014204;28;45489;-72
2022/08/24 04:14:21;;;;;;;;;7.00;6.00;;;;;21.13;78.19;99984.03;5015125;28;45568;-75
2022/08/24 04:16:47;;;;;;;;;6.00;5.33;;;;;21.28;77.94;100012.03;5015695;28;46525;-78
2022/08/24 04:19:13;;;;;;;;;6.00;6.00;;;;;21.17;78.46;99991.03;5015522;28;45418;-73
2022/08/24 04:21:39;;;;;;;;;9.67;6.00;;;;;21.18;78.24;100000.72;5015273;28;45654;-74
2022/08/24 04:24:07;;;;;;;;;5.33;5.00;;;;;21.05;77.84;99978.03;5015281;28;45407;-77
2022/08/24 04:26:36;;;;;;;;;5.67;5.33;;;;;21.16;77.92;99994.56;5030076;28;46420;-79
2022/08/24 04:29:02;;;;;;;;;6.00;5.00;;;;;21.16;78.47;99997.22;5030298;28;45504;-74
2022/08/24 04:31:30;;;;;;;;;6.67;6.00;;;;;21.17;78.36;99996.34;5030558;28;45597;-74
2022/08/24 04:33:55;;;;;;;;;4.00;3.00;;;;;21.21;78.37;100005.13;5033071;28;45629;-78
2022/08/24 04:36:22;;;;;;;;;5.00;5.00;;;;;21.07;77.95;99978.88;5014800;28;45828;-74
2022/08/24 04:38:49;;;;;;;;;8.33;8.00;;;;;21.21;77.73;99995.38;5015398;28;45502;-76
2022/08/24 04:41:18;;;;;;;;;6.00;6.00;;;;;21.02;77.95;99967.47;5016223;28;45509;-73
2022/08/24 04:43:46;;;;;;;;;6.00;6.00;;;;;21.20;78.11;100004.22;5031253;28;45633;-78
2022/08/24 04:46:14;;;;;;;;;5.67;5.67;;;;;21.06;77.72;99975.31;5015881;28;46600;-77
2022/08/24 04:48:42;;;;;;;;;8.67;6.00;;;;;21.06;77.96;99974.44;5015788;28;45618;-74
2022/08/24 04:51:10;;;;;;;;;5.67;5.00;;;;;21.18;78.13;99998.06;5016597;28;45684;-74
2022/08/24 04:53:35;;;;;;;;;5.00;4.67;;;;;21.19;77.71;99994.53;5028405;28;45669;-74
2022/08/24 04:56:02;;;;;;;;;5.00;5.00;;;;;21.18;77.90;99995.41;5011692;28;45577;-78
2022/08/24 04:58:29;;;;;;;;;6.00;5.00;;;;;21.11;77.65;99977.00;5000817;28;45436;-80
2022/08/24 05:00:56;;;;;;;;;5.33;5.33;;;;;21.15;77.69;99989.28;5016261;28;45382;-80
2022/08/24 05:03:22;;;;;;;;;5.00;4.67;;;;;21.12;78.00;99987.59;5015866;28;45665;-74
2022/08/24 05:05:49;;;;;;;;;5.33;4.67;;;;;21.11;78.34;99998.25;5016243;28;45404;-75
2022/08/24 05:08:17;;;;;;;;;4.33;4.33;;;;;21.07;78.12;100002.78;5015605;28;45453;-79
2022/08/24 05:10:46;;;;;;;;;4.00;4.00;;;;;21.09;78.34;99995.63;5016527;28;45420;-74
2022/08/24 05:13:12;;;;;;;;;5.00;5.00;;;;;21.13;78.10;99986.69;5019766;28;45624;-75
2022/08/24 05:15:43;;;;;;;;;6.33;6.00;;;;;21.18;78.19;99994.56;5019565;28;45357;-73
2022/08/24 05:18:10;;;;;;;;;6.67;6.00;;;;;21.16;78.51;99997.22;5019849;28;45299;-75
2022/08/24 05:20:40;;;;;;;;;6.00;5.00;;;;;21.05;79.02;99989.50;5030252;28;45364;-74
2022/08/24 05:23:05;;;;;;;;;5.33;4.67;;;;;21.06;79.64;100008.97;5019894;28;45694;-73
2022/08/24 05:25:31;;;;;;;;;4.00;4.00;;;;;21.06;78.71;100003.66;5019107;28;46369;-74
2022/08/24 05:27:57;;;;;;;;;5.00;5.00;;;;;20.98;79.07;99989.69;5019429;28;45391;-79
2022/08/24 05:30:22;;;;;;;;;6.33;5.00;;;;;21.08;78.58;100008.94;5019477;28;45538;-77
2022/08/24 05:32:48;;;;;;;;;9.67;9.67;;;;;20.88;79.06;99977.50;5019203;28;45416;-78
2022/08/24 05:35:14;;;;;;;;;5.33;5.33;;;;;20.96;79.08;99988.84;5019002;28;45399;-77
2022/08/24 05:37:41;;;;;;;;;5.33;5.00;;;;;21.00;78.50;99985.22;5003951;28;45506;-74
2022/08/24 05:40:10;;;;;;;;;4.67;4.67;;;;;20.99;78.45;100000.28;5019567;28;45371;-76
2022/08/24 05:42:37;;;;;;;;;5.00;5.00;;;;;21.06;78.75;100011.63;5020171;28;45518;-80
2022/08/24 05:45:03;;;;;;;;;5.33;4.67;;;;;21.03;79.00;100004.63;5018789;28;46088;-73
2022/08/24 05:47:29;;;;;;;;;5.33;5.00;;;;;20.99;78.94;99994.06;5033633;28;45419;-76
2022/08/24 05:49:54;;;;;;;;;4.67;4.00;;;;;21.01;78.23;99989.63;5017461;28;45360;-78
2022/08/24 05:52:21;;;;;;;;;4.67;4.00;;;;;21.06;78.08;99998.34;5018455;28;45625;-79
2022/08/24 05:54:55;;;;;;;;;4.67;4.67;;;;;21.11;77.99;100009.75;5018149;28;46278;-75
2022/08/24 05:57:22;;;;;;;;;5.00;4.33;;;;;21.13;78.04;100009.69;5017463;28;45379;-79
2022/08/24 05:59:48;;;;;;;;;4.67;4.00;;;;;21.19;77.55;100007.81;5015867;28;45500;-78
2022/08/24 06:02:15;;;;;;;;;4.00;4.00;;;;;21.22;77.74;99998.88;5018820;28;45460;-79
2022/08/24 06:04:41;;;;;;;;;5.00;4.00;;;;;21.16;77.53;99991.06;5017707;28;45462;-79
2022/08/24 06:07:09;;;;;;;;;4.00;3.33;;;;;21.15;77.45;99981.31;5018038;28;45531;-79
2022/08/24 06:09:35;;;;;;;;;5.33;4.00;;;;;21.23;77.55;100004.16;5016947;28;45450;-76
2022/08/24 06:12:01;;;;;;;;;4.00;4.00;;;;;21.21;77.23;99991.84;5017330;28;45324;-77
2022/08/24 06:14:26;;;;;;;;;8.67;8.00;;;;;21.30;76.75;100006.69;5032117;28;45447;-73
2022/08/24 06:16:52;;;;;;;;;7.67;5.00;;;;;21.32;76.59;100002.22;5015549;28;45492;-72
2022/08/24 06:19:19;;;;;;;;;5.00;4.67;;;;;21.38;75.96;100000.28;5016611;28;45576;-73
2022/08/24 06:21:47;;;;;;;;;5.00;4.33;;;;;21.59;75.78;100017.53;5017736;28;46289;-73
2022/08/24 06:24:14;;;;;;;;;4.33;4.33;;;;;21.66;75.55;100020.91;5016345;28;45459;-73
2022/08/24 06:29:25;;;;;;;;;7.33;6.00;;;;;21.60;75.74;99990.03;5015316;28;45375;-75
2022/08/24 06:31:51;;;;;;;;;4.00;4.00;;;;;21.89;74.55;100007.06;5015796;28;45570;-78
2022/08/24 06:34:18;;;;;;;;;4.00;4.00;;;;;22.11;74.37;100015.38;5029820;28;47241;-75
2022/08/24 06:36:44;;;;;;;;;4.00;4.00;;;;;22.33;72.44;100010.38;5015300;28;45489;-78
2022/08/24 06:39:10;;;;;;;;;5.00;4.67;;;;;22.40;72.15;99998.66;5016564;28;45704;-73
2022/08/24 06:41:37;;;;;;;;;5.00;5.00;;;;;22.33;72.28;99982.91;5016704;28;45516;-73
2022/08/24 06:44:03;;;;;;;;;5.00;4.00;;;;;22.46;71.72;100005.59;5016390;28;45822;-74
2022/08/24 06:46:29;;;;;;;;;4.33;4.00;;;;;22.35;73.30;99997.91;5016000;28;45444;-75
2022/08/24 06:48:54;;;;;;;;;4.67;3.33;;;;;22.58;73.02;100015.03;5031811;28;45757;-73
2022/08/24 06:51:21;;;;;;;;;5.00;5.00;;;;;22.51;72.51;99981.53;5016075;28;45467;-74
2022/08/24 06:53:49;;;;;;;;;4.00;4.00;;;;;22.90;71.45;100018.56;5016797;28;45464;-74
2022/08/24 06:56:16;;;;;;;;;5.00;5.00;;;;;22.92;71.65;100004.28;5016428;28;45932;-79
2022/08/24 06:58:43;;;;;;;;;3.33;3.33;;;;;22.96;70.83;100013.94;5015497;28;45365;-74
2022/08/24 07:01:17;;;;;;;;;4.00;4.00;;;;;22.89;71.33;99998.19;5016212;28;45513;-75
2022/08/24 07:03:44;;;;;;;;;4.33;4.33;;;;;23.10;70.73;100004.69;5014171;28;47014;-79
2022/08/24 07:06:11;;;;;;;;;3.00;3.00;;;;;23.42;70.24;100017.03;5016253;28;45654;-75
2022/08/24 07:08:37;;;;;;;;;5.33;5.00;;;;;23.56;69.71;100016.59;5015941;28;45598;-80
2022/08/24 07:11:04;;;;;;;;;6.00;5.00;;;;;23.83;68.67;100012.16;5016118;28;45574;-78
2022/08/24 07:13:31;;;;;;;;;4.33;4.00;;;;;24.11;67.65;100008.56;5015693;28;45473;-74
2022/08/24 07:15:57;;;;;;;;;5.33;4.67;;;;;24.29;67.11;100009.72;5015514;28;45441;-76
2022/08/24 07:18:23;;;;;;;;;4.67;4.67;;;;;24.34;67.00;100000.63;5016209;28;45442;-78
2022/08/24 07:20:49;;;;;;;;;5.00;5.00;;;;;24.36;65.49;99989.91;5015483;28;45309;-73
2022/08/24 07:23:15;;;;;;;;;6.00;4.00;;;;;24.77;65.27;100001.78;5016202;28;45871;-77
2022/08/24 07:25:41;;;;;;;;;4.00;3.00;;;;;25.55;63.20;99997.88;5012708;28;45531;-79
2022/08/24 07:28:07;;;;;;;;;4.00;4.00;;;;;25.91;62.11;99993.78;5014333;28;45549;-74
2022/08/24 07:30:33;;;;;;;;;6.00;6.00;;;;;26.15;61.83;99975.78;5015478;28;45478;-76
2022/08/24 07:32:59;;;;;;;;;5.67;5.67;;;;;26.54;60.64;99986.56;5015308;28;46549;-73
2022/08/24 07:35:27;;;;;;;;;6.00;5.00;;;;;26.48;60.64;99989.50;5020536;28;45980;-78
2022/08/24 07:37:54;;;;;;;;;4.00;4.00;;;;;26.42;60.47;99997.78;5015772;28;45430;-75
2022/08/24 07:40:20;;;;;;;;;5.00;4.67;;;;;26.40;60.50;99964.84;5015443;28;45522;-78
2022/08/24 07:42:48;;;;;;;;;6.00;6.00;;;;;26.57;60.14;99989.06;5013655;28;45431;-72
2022/08/24 07:45:14;;;;;;;;;6.00;6.00;;;;;26.67;59.21;99992.25;5015702;28;45549;-77
2022/08/24 07:47:39;;;;;;;;;4.33;4.33;;;;;27.73;57.26;99973.78;5014044;28;45419;-79
2022/08/24 07:50:05;;;;;;;;;5.33;5.33;;;;;29.74;52.39;99982.72;5014443;28;45395;-75
2022/08/24 07:52:31;;;;;;;;;5.00;5.00;;;;;30.48;50.77;99976.50;5014348;28;46269;-80
2022/08/24 07:54:57;;;;;;;;;5.33;5.33;;;;;30.38;49.19;99948.41;5014621;28;45381;-73
2022/08/24 07:57:23;;;;;;;;;6.00;5.00;;;;;31.99;46.02;99947.81;5014776;28;45720;-73
2022/08/24 07:59:48;;;;;;;;;5.00;4.67;;;;;33.28;44.62;99956.75;5017030;28;45739;-73
2022/08/24 08:02:14;;;;;;;;;3.33;3.33;;;;;35.46;39.30;99984.97;5016358;28;45383;-76
2022/08/24 08:04:40;;;;;;;;;4.67;4.00;;;;;37.13;37.58;99977.81;5015242;28;45464;-73
2022/08/24 08:07:06;;;;;;;;;3.67;3.67;;;;;38.60;33.07;99962.34;5013843;28;45488;-73
2022/08/24 08:09:35;;;;;;;;;2.67;2.67;;;;;39.85;30.78;99977.28;5014753;28;45559;-77
2022/08/24 08:12:01;;;;;;;;;4.33;4.33;;;;;40.69;29.67;99987.69;5012452;28;45436;-73
2022/08/24 08:14:26;;;;;;;;;3.33;3.00;;;;;41.29;30.46;99977.72;5014846;28;45431;-73
2022/08/24 08:16:52;;;;;;;;;2.50;2.50;;;;;42.26;29.48;99969.75;5014737;28;45421;-75
2022/08/24 08:19:18;;;;;;;;;1.67;1.67;;;;;43.03;27.57;99971.97;5030586;28;45487;-74
2022/08/24 08:24:35;;;;;;;;;2.33;2.33;;;;;44.47;25.39;99979.56;5015305;28;45514;-75
2022/08/24 08:27:01;;;;;;;;;4.00;3.00;;;;;44.93;25.98;99959.25;5012316;28;45455;-75
2022/08/24 08:29:30;;;;;;;;;4.33;4.00;;;;;45.18;24.23;99950.63;5014199;28;45641;-74
2022/08/24 08:31:56;;;;;;;;;1.00;1.00;;;;;45.55;24.08;99960.59;5012670;28;45399;-74
2022/08/24 08:34:22;;;;;;;;;3.33;2.67;;;;;45.70;23.96;99945.91;5013011;28;46789;-75
2022/08/24 08:36:49;;;;;;;;;3.00;3.00;;;;;45.79;24.40;99956.63;5013770;28;45844;-75
2022/08/24 08:39:17;;;;;;;;;3.67;2.67;;;;;45.63;23.35;99949.44;5013934;28;45673;-74
2022/08/24 08:42:27;;;;;;;;;2.00;2.00;;;;;45.67;24.71;99960.97;5012280;28;45526;-74
2022/08/24 08:45:11;;;;;;;;;2.00;2.00;;;;;45.87;23.98;99952.03;4993186;28;45463;-75
2022/08/24 08:48:04;;;;;;;;;2.67;2.67;;;;;45.76;23.92;99951.47;5010455;28;45886;-73
2022/08/24 08:51:11;;;;;;;;;2.00;2.00;;;;;45.18;24.51;99942.34;5025989;28;45602;-75
2022/08/24 08:53:58;;;;;;;;;2.00;2.00;;;;;45.07;24.78;99946.47;5023402;28;46336;-74
2022/08/24 08:56:35;;;;;;;;;2.00;2.00;;;;;44.99;25.42;99946.59;5027985;28;45430;-74
2022/08/24 08:59:13;;;;;;;;;2.67;2.67;;;;;44.57;24.95;99929.72;5012228;28;45521;-74
2022/08/24 09:02:17;;;;;;;;;3.00;2.67;;;;;43.87;25.65;99919.88;5010307;28;45359;-73
2022/08/24 09:05:14;;;;;;;;;2.67;2.67;;;;;44.04;25.80;99932.44;5007473;28;47021;-74
2022/08/24 09:08:00;;;;;;;;;3.00;3.00;;;;;43.87;27.22;99942.78;5027183;28;45465;-74
2022/08/24 09:11:00;;;;;;;;;2.33;2.33;;;;;43.92;25.54;99939.44;5009575;28;45751;-74
2022/08/24 09:13:54;;;;;;;;;7.00;6.67;;;;;43.78;27.26;99937.53;5012109;28;45873;-76
2022/08/24 09:16:51;;;;;;;;;1.67;1.67;;;;;44.33;25.94;99929.94;5001682;28;45705;-76
2022/08/24 09:19:46;;;;;;;;;3.00;3.00;;;;;44.39;24.98;99916.28;4982747;28;45813;-76
2022/08/24 09:22:13;;;;;;;;;2.00;2.00;;;;;44.78;25.72;99930.81;5017651;28;45337;-76
2022/08/24 09:24:51;;;;;;;;;2.67;2.00;;;;;45.03;24.53;99936.91;5022634;28;45987;-74
2022/08/24 09:27:46;;;;;;;;;3.33;3.00;;;;;45.04;25.39;99931.16;5013121;28;46984;-75
2022/08/24 09:30:17;;;;;;;;;3.33;3.33;;;;;45.25;25.83;99922.09;4986839;28;45403;-76
2022/08/24 09:33:05;;;;;;;;;3.00;2.33;;;;;45.43;25.16;99924.41;5015258;28;45654;-76
2022/08/24 09:35:44;;;;;;;;;4.00;3.67;;;;;45.33;25.09;99915.63;4999810;28;45402;-76
2022/08/24 09:38:09;;;;;;;;;2.00;2.00;;;;;45.08;25.74;99911.50;5014315;28;46452;-76
2022/08/24 09:41:07;;;;;;;;;2.67;2.67;;;;;45.40;25.72;99911.00;5015394;28;45461;-76
2022/08/24 09:43:51;;;;;;;;;1.67;1.67;;;;;46.16;25.60;99906.81;5029280;28;45436;-76
2022/08/24 09:46:34;;;;;;;;;3.00;3.00;;;;;46.67;24.01;99903.72;5015551;28;45464;-76
2022/08/24 09:49:36;;;;;;;;;2.67;2.67;;;;;47.04;25.25;99904.34;5014749;28;46647;-77
2022/08/24 09:52:20;;;;;;;;;6.67;5.67;;;;;47.58;23.40;99894.25;4980325;28;45426;-75
2022/08/24 09:55:09;;;;;;;;;4.00;3.67;;;;;47.65;22.40;99894.25;5015381;28;45762;-75
2022/08/24 09:57:38;;;;;;;;;5.33;5.33;;;;;47.82;24.02;99887.22;5016059;28;45390;-77
2022/08/24 10:00:14;;;;;;;;;2.67;2.67;;;;;47.71;23.21;99882.31;5023120;28;46573;-76
2022/08/24 10:03:08;;;;;;;;;3.67;3.67;;;;;47.82;23.06;99890.00;5014621;28;45387;-78
2022/08/24 10:05:54;;;;;;;;;3.67;3.67;;;;;48.24;22.45;99892.53;4991603;28;45481;-76
2022/08/24 10:08:59;;;;;;;;;1.67;1.67;;;;;48.49;22.59;99885.22;5016647;28;46480;-76
2022/08/24 10:12:01;;;;;;;;;2.00;2.00;;;;;48.69;21.65;99884.31;5017019;28;45447;-76
2022/08/24 10:14:40;;;;;;;;;1.67;1.67;;;;;48.84;21.47;99884.03;5014189;28;45301;-76
2022/08/24 10:17:18;;;;;;;;;2.00;2.00;;;;;48.65;22.74;99864.50;5013036;28;45943;-80
2022/08/24 10:20:01;;;;;;;;;8.00;6.33;;;;;48.82;22.05;99872.31;4998077;28;45594;-76
2022/08/24 10:22:48;;;;;;;;;5.00;4.00;;;;;48.83;21.86;99880.41;5017930;28;46598;-76
2022/08/24 10:25:30;;;;;;;;;0.00;0.00;;;;;48.59;21.49;99874.53;5015895;28;45475;-75
2022/08/24 10:28:32;;;;;;;;;1.00;1.00;;;;;48.05;22.47;99870.16;5030807;28;45371;-75
2022/08/24 10:31:03;;;;;;;;;2.00;2.00;;;;;48.03;22.69;99863.16;5013193;28;45329;-75
2022/08/24 10:33:54;;;;;;;;;1.67;1.67;;;;;47.75;23.01;99867.00;5030449;28;48160;-75
2022/08/24 10:36:41;;;;;;;;;9.00;9.00;;;;;47.60;22.52;99845.94;5016319;28;47129;-75
2022/08/24 10:39:42;;;;;;;;;2.67;2.67;;;;;47.39;23.77;99851.66;5002968;28;45758;-76
2022/08/24 10:45:59;;;;;;;;;2.33;2.33;;;;;47.15;23.12;99851.16;4992836;28;45411;-74
2022/08/24 10:48:30;;;;;;;;;0.67;0.67;;;;;46.64;23.27;99851.66;5010573;28;45560;-76
2022/08/24 10:51:20;;;;;;;;;2.00;1.33;;;;;46.35;23.93;99850.84;5025632;28;45852;-75
2022/08/24 10:53:49;;;;;;;;;2.67;2.67;;;;;45.82;23.54;99826.53;5027030;28;45601;-75
2022/08/24 10:56:18;;;;;;;;;5.33;5.33;;;;;45.46;24.16;99845.94;5030960;28;47071;-76
2022/08/24 10:59:13;;;;;;;;;2.67;2.67;;;;;44.42;24.56;99838.78;5015405;28;45503;-75
2022/08/24 11:01:39;;;;;;;;;1.33;1.33;;;;;43.85;25.21;99826.53;4960636;28;45676;-74
2022/08/24 11:04:10;;;;;;;;;1.67;1.67;;;;;43.28;26.77;99824.31;5030010;28;45769;-83
2022/08/24 11:06:41;;;;;;;;;1.67;1.67;;;;;42.76;26.76;99825.81;5027780;28;45509;-77
2022/08/24 11:09:13;;;;;;;;;2.33;1.67;;;;;42.21;27.06;99823.97;5014467;28;46087;-74
2022/08/24 11:11:43;;;;;;;;;2.00;2.00;;;;;41.63;28.71;99817.75;5016449;28;45418;-77
2022/08/24 11:14:14;;;;;;;;;1.67;1.67;;;;;41.14;28.96;99811.16;5017584;28;45529;-79
2022/08/24 11:16:45;;;;;;;;;2.00;1.00;;;;;40.67;31.45;99817.25;5018104;28;45745;-78
2022/08/24 11:19:12;;;;;;;;;3.67;3.67;;;;;39.99;30.49;99752.47;5015335;28;45442;-75
2022/08/24 11:21:42;;;;;;;;;3.00;2.67;;;;;40.20;31.07;99803.19;5014257;28;45905;-75
2022/08/24 11:24:17;;;;;;;;;1.67;1.67;;;;;39.61;31.91;99806.56;5016818;28;45509;-78
2022/08/24 11:26:57;;;;;;;;;2.00;2.00;;;;;39.14;32.26;99794.03;5036423;28;46276;-77
2022/08/24 11:29:49;;;;;;;;;1.67;1.67;;;;;38.77;32.89;99794.16;5013522;28;45550;-76
2022/08/24 11:32:41;;;;;;;;;2.67;2.67;;;;;38.51;33.90;99794.00;5028980;28;45419;-78
2022/08/24 11:35:19;;;;;;;;;1.67;1.67;;;;;38.18;34.03;99789.03;5012578;28;45547;-74
2022/08/24 11:37:46;;;;;;;;;1.67;1.67;;;;;37.90;34.89;99787.22;5012069;28;46470;-76
2022/08/24 11:40:13;;;;;;;;;1.67;1.67;;;;;37.84;35.44;99793.28;5014761;28;45404;-76
2022/08/24 11:42:48;;;;;;;;;2.00;2.00;;;;;37.67;35.28;99790.31;5013834;28;45387;-77
2022/08/24 11:45:27;;;;;;;;;10.67;10.00;;;;;37.23;35.60;99779.03;5012960;28;45274;-77
2022/08/24 11:48:13;;;;;;;;;5.00;5.00;;;;;37.08;36.63;99778.56;5016711;28;46362;-77
2022/08/24 11:51:08;;;;;;;;;2.00;2.00;;;;;36.89;36.64;99759.50;5015234;28;45246;-78
2022/08/24 11:53:55;;;;;;;;;1.67;1.67;;;;;36.80;36.68;99781.13;5010841;28;45371;-77
2022/08/24 11:56:30;;;;;;;;;1.00;1.00;;;;;36.54;36.35;99783.50;5016750;28;45594;-77
2022/08/24 11:59:12;;;;;;;;;2.00;1.33;;;;;36.32;36.17;99760.13;5016678;28;45442;-77
2022/08/24 12:01:54;;;;;;;;;1.00;1.00;;;;;36.19;36.76;99770.38;5011221;28;45467;-77